Central City, Missouri
Current Conditions -  °F | °C
As of 11:53 AM on Wednesday 28 Jan 2015 (Local Time) from KJLN Reporting Station
Clear Clear  
Wind Chill: 71°   Ceiling: Unl
Heat Index: 71°   Visibility: 10mi
Dew Point: 37°   Wind: 21mph
Humidity: 29%   Direction: 200°SSW
Pressure: 29.96"   Gusts: 36mph
Location:  37.1074°N, 94.5218°W
Report Text: KJLN 281753Z 20018G31KT 10SM CLR 22/03 A2996 RMK AO2 PK WND 20031/1746 SLP140 T02170028 10222 20094 58023
Loading
Personal Weather Stations






























Interactive Weather Map New forecast layout! Learn more

10-Day Weather Forecast

Advertisements
Track Severe Weather on mobile